PILOTS ONLINE: 481    ATC ONLINE: 144

PALU

Cape Lisburne LRRS Airport

Location

IATA LUR
City Cape Lisburne
Country  United States
Latitude 68° 52' 30" N
Longitude 166° 6' 36" W
Elevation 16 ft
Type Medium Airport

Map

Weather

METAR
2014/09/16 19:11
PALU 161911Z AUTO 03013KT 1 3/4SM -SHRA BR BKN005 05/05 A2962 RMK AO2 SLP031
TAF
2012/01/10 17:27
TAF TAF PALU 1017/1120 20020KT 8000 BLSN SKC QNH2972INS 
      BECMG 1100/1101 31012KT 9999 NSW SCT060 QNH2969INS TM23/1103Z TM29/1118Z 
      AMD 101723 LAST NO 
      AMDS

Runways

08/26 4800 ft / 135 ft

Outbound flights

Callsign Flying to Pilot ATD/STD ETA Aircraft

Inbound flights

Callsign Flying from Pilot ATD ETA Aircraft